sensor_id;sensor_type;location;lat;lon;timestamp;temperature;humidity
12700;DHT22;6414;49.570;6.060;2023-07-22T00:00:19;14.00;99.90
12700;DHT22;6414;49.570;6.060;2023-07-22T00:03:05;13.90;99.90
12700;DHT22;6414;49.570;6.060;2023-07-22T00:06:04;13.80;99.90
12700;DHT22;6414;49.570;6.060;2023-07-22T00:08:50;13.70;99.90
12700;DHT22;6414;49.570;6.060;2023-07-22T00:11:36;13.70;99.90
12700;DHT22;6414;49.570;6.060;2023-07-22T00:14:22;13.80;99.90
12700;DHT22;6414;49.570;6.060;2023-07-22T00:17:09;13.90;99.90
12700;DHT22;6414;49.570;6.060;2023-07-22T00:19:55;13.90;99.90
12700;DHT22;6414;49.570;6.060;2023-07-22T00:22:41;14.00;99.90
12700;DHT22;6414;49.570;6.060;2023-07-22T00:25:27;14.00;99.90
12700;DHT22;6414;49.570;6.060;2023-07-22T00:28:13;14.00;99.90
12700;DHT22;6414;49.570;6.060;2023-07-22T00:31:01;14.10;99.90
12700;DHT22;6414;49.570;6.060;2023-07-22T00:33:46;14.20;99.90
12700;DHT22;6414;49.570;6.060;2023-07-22T00:36:32;14.20;99.90
12700;DHT22;6414;49.570;6.060;2023-07-22T00:39:18;14.20;99.90
12700;DHT22;6414;49.570;6.060;2023-07-22T00:42:05;14.20;99.90
12700;DHT22;6414;49.570;6.060;2023-07-22T00:44:51;14.10;99.90
12700;DHT22;6414;49.570;6.060;2023-07-22T00:47:38;14.20;99.90
12700;DHT22;6414;49.570;6.060;2023-07-22T00:50:24;14.20;99.90
12700;DHT22;6414;49.570;6.060;2023-07-22T00:53:10;14.10;99.90
12700;DHT22;6414;49.570;6.060;2023-07-22T00:55:57;14.00;99.90
12700;DHT22;6414;49.570;6.060;2023-07-22T00:58:43;13.90;99.90
12700;DHT22;6414;49.570;6.060;2023-07-22T01:01:29;14.00;99.90
12700;DHT22;6414;49.570;6.060;2023-07-22T01:04:16;13.90;99.90
12700;DHT22;6414;49.570;6.060;2023-07-22T01:07:03;13.70;99.90
12700;DHT22;6414;49.570;6.060;2023-07-22T01:09:55;13.40;99.90
12700;DHT22;6414;49.570;6.060;2023-07-22T01:12:37;13.30;99.90
12700;DHT22;6414;49.570;6.060;2023-07-22T01:15:27;13.30;99.90
12700;DHT22;6414;49.570;6.060;2023-07-22T01:18:09;13.20;99.90
12700;DHT22;6414;49.570;6.060;2023-07-22T01:20:55;13.00;99.90
12700;DHT22;6414;49.570;6.060;2023-07-22T01:23:41;13.00;99.90
12700;DHT22;6414;49.570;6.060;2023-07-22T01:26:28;13.00;99.90
12700;DHT22;6414;49.570;6.060;2023-07-22T01:29:14;13.00;99.90
12700;DHT22;6414;49.570;6.060;2023-07-22T01:32:00;13.10;99.90
12700;DHT22;6414;49.570;6.060;2023-07-22T01:34:46;13.00;99.90
12700;DHT22;6414;49.570;6.060;2023-07-22T01:37:33;13.00;99.90
12700;DHT22;6414;49.570;6.060;2023-07-22T01:40:19;13.00;99.90
12700;DHT22;6414;49.570;6.060;2023-07-22T01:43:06;13.00;99.90
12700;DHT22;6414;49.570;6.060;2023-07-22T01:45:52;13.10;99.90
12700;DHT22;6414;49.570;6.060;2023-07-22T01:48:38;13.20;99.90
12700;DHT22;6414;49.570;6.060;2023-07-22T01:51:25;13.10;99.90
12700;DHT22;6414;49.570;6.060;2023-07-22T01:54:11;13.00;99.90
12700;DHT22;6414;49.570;6.060;2023-07-22T01:56:57;13.10;99.90
12700;DHT22;6414;49.570;6.060;2023-07-22T01:59:44;13.10;99.90
12700;DHT22;6414;49.570;6.060;2023-07-22T02:02:30;13.00;99.90
12700;DHT22;6414;49.570;6.060;2023-07-22T02:05:16;13.00;99.90
12700;DHT22;6414;49.570;6.060;2023-07-22T02:08:03;13.00;99.90
12700;DHT22;6414;49.570;6.060;2023-07-22T02:10:49;13.00;99.90
12700;DHT22;6414;49.570;6.060;2023-07-22T02:13:35;12.90;99.90
12700;DHT22;6414;49.570;6.060;2023-07-22T02:16:21;12.80;99.90
12700;DHT22;6414;49.570;6.060;2023-07-22T02:19:07;12.80;99.90
12700;DHT22;6414;49.570;6.060;2023-07-22T02:21:54;12.80;99.90
12700;DHT22;6414;49.570;6.060;2023-07-22T02:24:40;12.80;99.90
12700;DHT22;6414;49.570;6.060;2023-07-22T02:27:27;12.80;99.90
12700;DHT22;6414;49.570;6.060;2023-07-22T02:30:13;12.70;99.90
12700;DHT22;6414;49.570;6.060;2023-07-22T02:32:59;12.80;99.90
12700;DHT22;6414;49.570;6.060;2023-07-22T02:35:46;12.70;99.90
12700;DHT22;6414;49.570;6.060;2023-07-22T02:38:31;12.70;99.90
12700;DHT22;6414;49.570;6.060;2023-07-22T02:41:18;12.60;99.90
12700;DHT22;6414;49.570;6.060;2023-07-22T02:44:04;12.50;99.90
12700;DHT22;6414;49.570;6.060;2023-07-22T02:46:50;12.40;99.90
12700;DHT22;6414;49.570;6.060;2023-07-22T02:49:36;12.50;99.90
12700;DHT22;6414;49.570;6.060;2023-07-22T02:52:23;12.50;99.90
12700;DHT22;6414;49.570;6.060;2023-07-22T02:55:10;12.60;99.90
12700;DHT22;6414;49.570;6.060;2023-07-22T02:57:55;12.60;99.90
12700;DHT22;6414;49.570;6.060;2023-07-22T03:00:41;12.50;99.90
12700;DHT22;6414;49.570;6.060;2023-07-22T03:03:27;12.60;99.90
12700;DHT22;6414;49.570;6.060;2023-07-22T03:06:14;12.70;99.90
12700;DHT22;6414;49.570;6.060;2023-07-22T03:09:00;12.70;99.90
12700;DHT22;6414;49.570;6.060;2023-07-22T03:11:46;12.70;99.90
12700;DHT22;6414;49.570;6.060;2023-07-22T03:14:32;12.60;99.90
12700;DHT22;6414;49.570;6.060;2023-07-22T03:17:19;12.60;99.90
12700;DHT22;6414;49.570;6.060;2023-07-22T03:20:05;12.40;99.90
12700;DHT22;6414;49.570;6.060;2023-07-22T03:22:52;12.50;99.90
12700;DHT22;6414;49.570;6.060;2023-07-22T03:25:38;12.50;99.90
12700;DHT22;6414;49.570;6.060;2023-07-22T03:28:25;12.50;99.90
12700;DHT22;6414;49.570;6.060;2023-07-22T03:31:11;12.50;99.90
12700;DHT22;6414;49.570;6.060;2023-07-22T03:33:57;12.40;99.90
12700;DHT22;6414;49.570;6.060;2023-07-22T03:36:44;11.90;99.90
12700;DHT22;6414;49.570;6.060;2023-07-22T03:39:30;11.90;99.90
12700;DHT22;6414;49.570;6.060;2023-07-22T03:42:16;11.60;99.90
12700;DHT22;6414;49.570;6.060;2023-07-22T03:45:02;11.40;99.90
12700;DHT22;6414;49.570;6.060;2023-07-22T03:47:58;11.40;99.90
12700;DHT22;6414;49.570;6.060;2023-07-22T03:50:44;11.20;99.90
12700;DHT22;6414;49.570;6.060;2023-07-22T03:53:30;11.00;99.90
12700;DHT22;6414;49.570;6.060;2023-07-22T03:56:16;10.80;99.90
12700;DHT22;6414;49.570;6.060;2023-07-22T03:59:02;10.80;99.90
12700;DHT22;6414;49.570;6.060;2023-07-22T04:01:48;11.00;99.90
12700;DHT22;6414;49.570;6.060;2023-07-22T04:04:35;11.40;99.90
12700;DHT22;6414;49.570;6.060;2023-07-22T04:07:22;11.40;99.90
12700;DHT22;6414;49.570;6.060;2023-07-22T04:10:08;11.60;99.90
12700;DHT22;6414;49.570;6.060;2023-07-22T04:12:55;11.90;99.90
12700;DHT22;6414;49.570;6.060;2023-07-22T04:15:42;11.80;99.90
12700;DHT22;6414;49.570;6.060;2023-07-22T04:18:28;11.70;99.90
12700;DHT22;6414;49.570;6.060;2023-07-22T04:21:15;11.80;99.90
12700;DHT22;6414;49.570;6.060;2023-07-22T04:24:02;11.80;99.90
12700;DHT22;6414;49.570;6.060;2023-07-22T04:26:48;11.80;99.90
12700;DHT22;6414;49.570;6.060;2023-07-22T04:29:35;11.70;99.90
12700;DHT22;6414;49.570;6.060;2023-07-22T04:32:21;11.70;99.90
12700;DHT22;6414;49.570;6.060;2023-07-22T04:35:07;11.80;99.90
12700;DHT22;6414;49.570;6.060;2023-07-22T04:37:53;12.00;99.90
12700;DHT22;6414;49.570;6.060;2023-07-22T04:40:42;12.20;99.90
12700;DHT22;6414;49.570;6.060;2023-07-22T04:43:25;12.50;99.90
12700;DHT22;6414;49.570;6.060;2023-07-22T04:46:12;13.00;99.90
12700;DHT22;6414;49.570;6.060;2023-07-22T04:48:59;13.00;99.90
12700;DHT22;6414;49.570;6.060;2023-07-22T04:51:48;13.40;99.90
12700;DHT22;6414;49.570;6.060;2023-07-22T04:54:34;13.30;99.90
12700;DHT22;6414;49.570;6.060;2023-07-22T04:57:20;13.60;99.90
12700;DHT22;6414;49.570;6.060;2023-07-22T05:00:06;13.70;99.90
12700;DHT22;6414;49.570;6.060;2023-07-22T05:02:51;13.90;99.90
12700;DHT22;6414;49.570;6.060;2023-07-22T05:05:38;14.00;99.90
12700;DHT22;6414;49.570;6.060;2023-07-22T05:08:25;14.00;99.90
12700;DHT22;6414;49.570;6.060;2023-07-22T05:11:11;14.00;99.90
12700;DHT22;6414;49.570;6.060;2023-07-22T05:13:57;14.10;99.90
12700;DHT22;6414;49.570;6.060;2023-07-22T05:16:44;14.10;99.90
12700;DHT22;6414;49.570;6.060;2023-07-22T05:19:31;14.10;99.90
12700;DHT22;6414;49.570;6.060;2023-07-22T05:22:17;14.10;99.90
12700;DHT22;6414;49.570;6.060;2023-07-22T05:25:04;14.10;99.90
12700;DHT22;6414;49.570;6.060;2023-07-22T05:27:50;13.90;99.90
12700;DHT22;6414;49.570;6.060;2023-07-22T05:30:36;13.80;99.90
12700;DHT22;6414;49.570;6.060;2023-07-22T05:33:23;13.80;99.90
12700;DHT22;6414;49.570;6.060;2023-07-22T05:36:10;13.80;99.90
12700;DHT22;6414;49.570;6.060;2023-07-22T05:38:57;13.70;99.90
12700;DHT22;6414;49.570;6.060;2023-07-22T05:41:42;13.80;99.90
12700;DHT22;6414;49.570;6.060;2023-07-22T05:44:28;13.90;99.90
12700;DHT22;6414;49.570;6.060;2023-07-22T05:47:14;14.00;99.90
12700;DHT22;6414;49.570;6.060;2023-07-22T05:50:00;14.00;99.90
12700;DHT22;6414;49.570;6.060;2023-07-22T05:52:46;14.20;99.90
12700;DHT22;6414;49.570;6.060;2023-07-22T05:55:32;14.30;99.90
12700;DHT22;6414;49.570;6.060;2023-07-22T05:58:18;14.50;99.90
12700;DHT22;6414;49.570;6.060;2023-07-22T06:01:05;14.60;99.90
12700;DHT22;6414;49.570;6.060;2023-07-22T06:03:51;14.60;99.90
12700;DHT22;6414;49.570;6.060;2023-07-22T06:06:37;14.70;99.90
12700;DHT22;6414;49.570;6.060;2023-07-22T06:09:24;14.60;99.90
12700;DHT22;6414;49.570;6.060;2023-07-22T06:12:10;14.60;99.90
12700;DHT22;6414;49.570;6.060;2023-07-22T06:14:56;14.50;99.90
12700;DHT22;6414;49.570;6.060;2023-07-22T06:17:43;14.70;99.90
12700;DHT22;6414;49.570;6.060;2023-07-22T06:20:29;14.70;99.90
12700;DHT22;6414;49.570;6.060;2023-07-22T06:23:15;14.80;99.90
12700;DHT22;6414;49.570;6.060;2023-07-22T06:26:02;14.70;99.90
12700;DHT22;6414;49.570;6.060;2023-07-22T06:28:48;15.10;99.90
12700;DHT22;6414;49.570;6.060;2023-07-22T06:31:35;15.10;99.90
12700;DHT22;6414;49.570;6.060;2023-07-22T06:34:21;15.10;99.90
12700;DHT22;6414;49.570;6.060;2023-07-22T06:37:07;15.20;99.90
12700;DHT22;6414;49.570;6.060;2023-07-22T06:39:53;15.20;99.90
12700;DHT22;6414;49.570;6.060;2023-07-22T06:42:40;15.20;99.90
12700;DHT22;6414;49.570;6.060;2023-07-22T06:45:26;15.20;99.90
12700;DHT22;6414;49.570;6.060;2023-07-22T06:48:12;15.50;99.90
12700;DHT22;6414;49.570;6.060;2023-07-22T06:50:59;15.60;99.90
12700;DHT22;6414;49.570;6.060;2023-07-22T06:53:45;15.50;99.90
12700;DHT22;6414;49.570;6.060;2023-07-22T06:56:31;15.30;99.90
12700;DHT22;6414;49.570;6.060;2023-07-22T06:59:17;15.40;99.90
12700;DHT22;6414;49.570;6.060;2023-07-22T07:02:03;15.50;99.90
12700;DHT22;6414;49.570;6.060;2023-07-22T07:04:49;15.70;99.90
12700;DHT22;6414;49.570;6.060;2023-07-22T07:07:36;15.80;99.90
12700;DHT22;6414;49.570;6.060;2023-07-22T07:10:22;15.90;99.90
12700;DHT22;6414;49.570;6.060;2023-07-22T07:13:08;16.10;99.90
12700;DHT22;6414;49.570;6.060;2023-07-22T07:15:55;16.30;88.50
12700;DHT22;6414;49.570;6.060;2023-07-22T07:18:41;16.30;83.30
12700;DHT22;6414;49.570;6.060;2023-07-22T07:21:27;16.50;67.70
12700;DHT22;6414;49.570;6.060;2023-07-22T07:24:13;16.50;1.00
12700;DHT22;6414;49.570;6.060;2023-07-22T07:26:59;16.60;1.00
12700;DHT22;6414;49.570;6.060;2023-07-22T07:29:46;16.70;1.00
12700;DHT22;6414;49.570;6.060;2023-07-22T07:32:33;17.20;1.00
12700;DHT22;6414;49.570;6.060;2023-07-22T07:35:18;17.10;1.00
12700;DHT22;6414;49.570;6.060;2023-07-22T07:38:05;17.30;1.00
12700;DHT22;6414;49.570;6.060;2023-07-22T07:40:58;17.50;1.00
12700;DHT22;6414;49.570;6.060;2023-07-22T07:43:43;17.50;1.00
12700;DHT22;6414;49.570;6.060;2023-07-22T07:46:29;17.40;1.00
12700;DHT22;6414;49.570;6.060;2023-07-22T07:49:15;17.50;1.00
12700;DHT22;6414;49.570;6.060;2023-07-22T07:52:01;17.60;1.00
12700;DHT22;6414;49.570;6.060;2023-07-22T07:54:48;17.50;99.90
12700;DHT22;6414;49.570;6.060;2023-07-22T07:57:34;17.40;99.90
12700;DHT22;6414;49.570;6.060;2023-07-22T08:00:21;17.60;99.90
12700;DHT22;6414;49.570;6.060;2023-07-22T08:03:07;17.80;99.90
12700;DHT22;6414;49.570;6.060;2023-07-22T08:05:53;17.90;1.00
12700;DHT22;6414;49.570;6.060;2023-07-22T08:08:40;18.40;1.00
12700;DHT22;6414;49.570;6.060;2023-07-22T08:11:26;18.40;1.00
12700;DHT22;6414;49.570;6.060;2023-07-22T08:14:12;18.50;1.00
12700;DHT22;6414;49.570;6.060;2023-07-22T08:16:58;18.60;81.80
12700;DHT22;6414;49.570;6.060;2023-07-22T08:19:45;18.90;99.90
12700;DHT22;6414;49.570;6.060;2023-07-22T08:22:31;18.90;1.00
12700;DHT22;6414;49.570;6.060;2023-07-22T08:25:17;18.80;1.00
12700;DHT22;6414;49.570;6.060;2023-07-22T08:28:03;18.90;16.20
12700;DHT22;6414;49.570;6.060;2023-07-22T08:30:50;18.90;1.00
12700;DHT22;6414;49.570;6.060;2023-07-22T08:33:36;19.00;1.00
12700;DHT22;6414;49.570;6.060;2023-07-22T08:36:23;19.00;1.00
12700;DHT22;6414;49.570;6.060;2023-07-22T08:39:09;19.10;1.00
12700;DHT22;6414;49.570;6.060;2023-07-22T08:41:55;19.20;1.00
12700;DHT22;6414;49.570;6.060;2023-07-22T08:44:43;19.30;1.00
12700;DHT22;6414;49.570;6.060;2023-07-22T08:47:28;19.50;1.00
12700;DHT22;6414;49.570;6.060;2023-07-22T08:50:14;19.60;1.00
12700;DHT22;6414;49.570;6.060;2023-07-22T08:53:00;19.50;99.90
12700;DHT22;6414;49.570;6.060;2023-07-22T08:55:46;19.60;99.90
12700;DHT22;6414;49.570;6.060;2023-07-22T08:58:33;19.80;99.90
12700;DHT22;6414;49.570;6.060;2023-07-22T09:01:20;19.90;99.90
12700;DHT22;6414;49.570;6.060;2023-07-22T09:04:07;19.90;99.90
12700;DHT22;6414;49.570;6.060;2023-07-22T09:06:53;20.10;99.90
12700;DHT22;6414;49.570;6.060;2023-07-22T09:09:38;20.40;99.90
12700;DHT22;6414;49.570;6.060;2023-07-22T09:12:25;20.70;99.90
12700;DHT22;6414;49.570;6.060;2023-07-22T09:15:11;21.00;99.90
12700;DHT22;6414;49.570;6.060;2023-07-22T09:17:57;21.30;12.40
12700;DHT22;6414;49.570;6.060;2023-07-22T09:20:43;21.50;7.50
12700;DHT22;6414;49.570;6.060;2023-07-22T09:23:36;21.80;1.00
12700;DHT22;6414;49.570;6.060;2023-07-22T09:26:19;22.70;1.00
12700;DHT22;6414;49.570;6.060;2023-07-22T09:29:05;22.70;1.00
12700;DHT22;6414;49.570;6.060;2023-07-22T09:31:52;22.70;1.00
12700;DHT22;6414;49.570;6.060;2023-07-22T09:34:38;22.20;1.00
12700;DHT22;6414;49.570;6.060;2023-07-22T09:37:28;21.70;1.00
12700;DHT22;6414;49.570;6.060;2023-07-22T09:40:22;21.40;1.00
12700;DHT22;6414;49.570;6.060;2023-07-22T09:43:10;21.20;1.00
12700;DHT22;6414;49.570;6.060;2023-07-22T09:45:55;21.10;1.00
12700;DHT22;6414;49.570;6.060;2023-07-22T09:48:42;20.90;1.00
12700;DHT22;6414;49.570;6.060;2023-07-22T09:51:27;20.80;11.60
12700;DHT22;6414;49.570;6.060;2023-07-22T09:54:13;20.60;8.90
12700;DHT22;6414;49.570;6.060;2023-07-22T09:57:00;21.10;1.00
12700;DHT22;6414;49.570;6.060;2023-07-22T09:59:46;21.00;1.00
12700;DHT22;6414;49.570;6.060;2023-07-22T10:02:32;21.40;1.00
12700;DHT22;6414;49.570;6.060;2023-07-22T10:05:19;21.20;1.00
12700;DHT22;6414;49.570;6.060;2023-07-22T10:08:06;21.10;1.00
12700;DHT22;6414;49.570;6.060;2023-07-22T10:10:53;21.60;1.00
12700;DHT22;6414;49.570;6.060;2023-07-22T10:13:39;21.70;1.00
12700;DHT22;6414;49.570;6.060;2023-07-22T10:16:25;21.70;1.00
12700;DHT22;6414;49.570;6.060;2023-07-22T10:19:11;22.10;1.00
12700;DHT22;6414;49.570;6.060;2023-07-22T10:21:57;22.10;1.00
12700;DHT22;6414;49.570;6.060;2023-07-22T10:24:43;22.10;1.00
12700;DHT22;6414;49.570;6.060;2023-07-22T10:27:29;22.10;1.00
12700;DHT22;6414;49.570;6.060;2023-07-22T10:30:16;22.30;1.00
12700;DHT22;6414;49.570;6.060;2023-07-22T10:33:01;22.30;1.00
12700;DHT22;6414;49.570;6.060;2023-07-22T10:36:06;22.30;1.00
12700;DHT22;6414;49.570;6.060;2023-07-22T10:38:58;22.40;1.00
12700;DHT22;6414;49.570;6.060;2023-07-22T10:41:46;22.70;1.00
12700;DHT22;6414;49.570;6.060;2023-07-22T10:44:30;22.80;1.00
12700;DHT22;6414;49.570;6.060;2023-07-22T10:47:22;22.90;1.00
12700;DHT22;6414;49.570;6.060;2023-07-22T10:50:07;22.30;1.00
12700;DHT22;6414;49.570;6.060;2023-07-22T10:52:52;22.40;1.00
12700;DHT22;6414;49.570;6.060;2023-07-22T10:56:04;22.20;1.00
12700;DHT22;6414;49.570;6.060;2023-07-22T11:01:38;21.90;1.00
12700;DHT22;6414;49.570;6.060;2023-07-22T11:04:24;21.90;1.00
12700;DHT22;6414;49.570;6.060;2023-07-22T11:07:35;21.70;1.00
12700;DHT22;6414;49.570;6.060;2023-07-22T11:10:20;21.90;1.00
12700;DHT22;6414;49.570;6.060;2023-07-22T11:13:06;22.40;1.00
12700;DHT22;6414;49.570;6.060;2023-07-22T11:15:52;22.10;1.00
12700;DHT22;6414;49.570;6.060;2023-07-22T11:18:39;21.80;1.00
12700;DHT22;6414;49.570;6.060;2023-07-22T11:21:25;22.00;1.00
12700;DHT22;6414;49.570;6.060;2023-07-22T11:24:11;22.40;1.00
12700;DHT22;6414;49.570;6.060;2023-07-22T11:26:57;22.70;1.00
12700;DHT22;6414;49.570;6.060;2023-07-22T11:29:43;22.40;1.00
12700;DHT22;6414;49.570;6.060;2023-07-22T11:32:31;21.90;1.00
12700;DHT22;6414;49.570;6.060;2023-07-22T11:35:16;21.90;1.00
12700;DHT22;6414;49.570;6.060;2023-07-22T11:38:03;22.10;1.00
12700;DHT22;6414;49.570;6.060;2023-07-22T11:40:49;22.10;1.00
12700;DHT22;6414;49.570;6.060;2023-07-22T11:43:36;21.70;1.00
12700;DHT22;6414;49.570;6.060;2023-07-22T11:46:23;21.80;1.00
12700;DHT22;6414;49.570;6.060;2023-07-22T11:49:09;21.80;1.00
12700;DHT22;6414;49.570;6.060;2023-07-22T11:52:15;21.80;1.00
12700;DHT22;6414;49.570;6.060;2023-07-22T11:54:53;21.90;1.00
12700;DHT22;6414;49.570;6.060;2023-07-22T11:57:39;22.10;1.00
12700;DHT22;6414;49.570;6.060;2023-07-22T12:00:25;22.10;1.00
12700;DHT22;6414;49.570;6.060;2023-07-22T12:03:14;21.70;1.00
12700;DHT22;6414;49.570;6.060;2023-07-22T12:06:01;21.70;1.00
12700;DHT22;6414;49.570;6.060;2023-07-22T12:08:47;21.70;1.00
12700;DHT22;6414;49.570;6.060;2023-07-22T12:11:33;21.60;1.00
12700;DHT22;6414;49.570;6.060;2023-07-22T12:14:19;21.50;1.00
12700;DHT22;6414;49.570;6.060;2023-07-22T12:17:07;22.00;1.00
12700;DHT22;6414;49.570;6.060;2023-07-22T12:19:52;21.90;1.00
12700;DHT22;6414;49.570;6.060;2023-07-22T12:22:38;22.10;1.00
12700;DHT22;6414;49.570;6.060;2023-07-22T12:25:25;21.80;1.00
12700;DHT22;6414;49.570;6.060;2023-07-22T12:28:11;22.00;1.00
12700;DHT22;6414;49.570;6.060;2023-07-22T12:30:58;22.10;1.00
12700;DHT22;6414;49.570;6.060;2023-07-22T12:33:45;22.20;1.00
12700;DHT22;6414;49.570;6.060;2023-07-22T12:36:31;22.20;1.00
12700;DHT22;6414;49.570;6.060;2023-07-22T12:39:18;22.40;1.00
12700;DHT22;6414;49.570;6.060;2023-07-22T12:42:04;22.20;1.00
12700;DHT22;6414;49.570;6.060;2023-07-22T12:44:51;22.20;1.00
12700;DHT22;6414;49.570;6.060;2023-07-22T12:47:37;22.20;1.00
12700;DHT22;6414;49.570;6.060;2023-07-22T12:50:23;22.40;1.00
12700;DHT22;6414;49.570;6.060;2023-07-22T12:53:09;22.40;1.00
12700;DHT22;6414;49.570;6.060;2023-07-22T12:55:56;22.60;1.00
12700;DHT22;6414;49.570;6.060;2023-07-22T12:58:42;22.60;1.00
12700;DHT22;6414;49.570;6.060;2023-07-22T13:01:28;22.70;1.00
12700;DHT22;6414;49.570;6.060;2023-07-22T13:04:15;22.60;1.00
12700;DHT22;6414;49.570;6.060;2023-07-22T13:07:01;22.80;1.00
12700;DHT22;6414;49.570;6.060;2023-07-22T13:09:47;22.80;1.00
12700;DHT22;6414;49.570;6.060;2023-07-22T13:12:33;23.00;1.00
12700;DHT22;6414;49.570;6.060;2023-07-22T13:15:19;22.70;1.00
12700;DHT22;6414;49.570;6.060;2023-07-22T13:18:06;22.90;1.00
12700;DHT22;6414;49.570;6.060;2023-07-22T13:20:52;22.80;1.00
12700;DHT22;6414;49.570;6.060;2023-07-22T13:23:38;22.80;1.00
12700;DHT22;6414;49.570;6.060;2023-07-22T13:26:25;23.00;1.00
12700;DHT22;6414;49.570;6.060;2023-07-22T13:29:11;22.80;1.00
12700;DHT22;6414;49.570;6.060;2023-07-22T13:31:57;22.80;1.00
12700;DHT22;6414;49.570;6.060;2023-07-22T13:34:44;22.50;1.00
12700;DHT22;6414;49.570;6.060;2023-07-22T13:37:30;22.60;1.00
12700;DHT22;6414;49.570;6.060;2023-07-22T13:40:16;22.60;1.00
12700;DHT22;6414;49.570;6.060;2023-07-22T13:43:03;22.50;1.00
12700;DHT22;6414;49.570;6.060;2023-07-22T13:45:50;22.70;1.00
12700;DHT22;6414;49.570;6.060;2023-07-22T13:48:37;22.70;1.00
12700;DHT22;6414;49.570;6.060;2023-07-22T13:51:23;22.80;1.00
12700;DHT22;6414;49.570;6.060;2023-07-22T13:54:10;22.80;1.00
12700;DHT22;6414;49.570;6.060;2023-07-22T13:56:56;22.70;1.00
12700;DHT22;6414;49.570;6.060;2023-07-22T13:59:43;22.70;1.00
12700;DHT22;6414;49.570;6.060;2023-07-22T14:02:29;22.70;1.00
12700;DHT22;6414;49.570;6.060;2023-07-22T14:05:15;22.80;1.00
12700;DHT22;6414;49.570;6.060;2023-07-22T14:08:01;22.30;1.00
12700;DHT22;6414;49.570;6.060;2023-07-22T14:10:47;22.30;1.00
12700;DHT22;6414;49.570;6.060;2023-07-22T14:13:33;22.50;1.00
12700;DHT22;6414;49.570;6.060;2023-07-22T14:16:20;22.90;1.00
12700;DHT22;6414;49.570;6.060;2023-07-22T14:19:07;22.90;1.00
12700;DHT22;6414;49.570;6.060;2023-07-22T14:21:53;22.50;1.00
12700;DHT22;6414;49.570;6.060;2023-07-22T14:24:39;22.80;1.00
12700;DHT22;6414;49.570;6.060;2023-07-22T14:27:25;22.90;1.00
12700;DHT22;6414;49.570;6.060;2023-07-22T14:30:12;23.00;1.00
12700;DHT22;6414;49.570;6.060;2023-07-22T14:32:58;23.00;1.00
12700;DHT22;6414;49.570;6.060;2023-07-22T14:35:44;22.60;1.00
12700;DHT22;6414;49.570;6.060;2023-07-22T14:38:30;22.60;1.00
12700;DHT22;6414;49.570;6.060;2023-07-22T14:41:16;22.50;1.00
12700;DHT22;6414;49.570;6.060;2023-07-22T14:44:02;22.50;1.00
12700;DHT22;6414;49.570;6.060;2023-07-22T14:46:48;22.20;1.00
12700;DHT22;6414;49.570;6.060;2023-07-22T14:49:34;22.10;1.00
12700;DHT22;6414;49.570;6.060;2023-07-22T14:52:20;22.10;1.00
12700;DHT22;6414;49.570;6.060;2023-07-22T14:55:06;22.40;1.00
12700;DHT22;6414;49.570;6.060;2023-07-22T14:57:54;22.60;1.00
12700;DHT22;6414;49.570;6.060;2023-07-22T15:00:40;22.60;1.00
12700;DHT22;6414;49.570;6.060;2023-07-22T15:03:27;22.70;1.00
12700;DHT22;6414;49.570;6.060;2023-07-22T15:06:13;22.70;1.00
12700;DHT22;6414;49.570;6.060;2023-07-22T15:09:00;22.90;1.00
12700;DHT22;6414;49.570;6.060;2023-07-22T15:11:46;22.90;1.00
12700;DHT22;6414;49.570;6.060;2023-07-22T15:14:32;23.00;1.00
12700;DHT22;6414;49.570;6.060;2023-07-22T15:17:18;22.80;1.00
12700;DHT22;6414;49.570;6.060;2023-07-22T15:20:04;22.80;1.00
12700;DHT22;6414;49.570;6.060;2023-07-22T15:22:51;22.70;1.00
12700;DHT22;6414;49.570;6.060;2023-07-22T15:25:37;22.80;1.00
12700;DHT22;6414;49.570;6.060;2023-07-22T15:28:23;22.80;1.00
12700;DHT22;6414;49.570;6.060;2023-07-22T15:31:09;22.50;1.00
12700;DHT22;6414;49.570;6.060;2023-07-22T15:33:55;22.50;1.00
12700;DHT22;6414;49.570;6.060;2023-07-22T15:36:42;22.50;1.00
12700;DHT22;6414;49.570;6.060;2023-07-22T15:39:28;22.40;1.00
12700;DHT22;6414;49.570;6.060;2023-07-22T15:42:15;22.50;1.00
12700;DHT22;6414;49.570;6.060;2023-07-22T15:45:00;22.50;1.00
12700;DHT22;6414;49.570;6.060;2023-07-22T15:47:46;22.60;1.00
12700;DHT22;6414;49.570;6.060;2023-07-22T15:50:32;22.50;1.00
12700;DHT22;6414;49.570;6.060;2023-07-22T15:53:18;22.60;1.00
12700;DHT22;6414;49.570;6.060;2023-07-22T15:56:04;22.30;1.00
12700;DHT22;6414;49.570;6.060;2023-07-22T15:58:50;22.40;1.00
12700;DHT22;6414;49.570;6.060;2023-07-22T16:01:36;22.40;1.00
12700;DHT22;6414;49.570;6.060;2023-07-22T16:04:22;22.50;1.00
12700;DHT22;6414;49.570;6.060;2023-07-22T16:07:08;22.60;1.00
12700;DHT22;6414;49.570;6.060;2023-07-22T16:09:54;22.60;1.00
12700;DHT22;6414;49.570;6.060;2023-07-22T16:12:41;22.60;1.00
12700;DHT22;6414;49.570;6.060;2023-07-22T16:15:27;22.70;1.00
12700;DHT22;6414;49.570;6.060;2023-07-22T16:18:13;22.70;1.00
12700;DHT22;6414;49.570;6.060;2023-07-22T16:21:00;22.60;1.00
12700;DHT22;6414;49.570;6.060;2023-07-22T16:23:46;22.50;1.00
12700;DHT22;6414;49.570;6.060;2023-07-22T16:26:32;22.60;1.00
12700;DHT22;6414;49.570;6.060;2023-07-22T16:29:18;22.70;1.00
12700;DHT22;6414;49.570;6.060;2023-07-22T16:32:04;22.70;1.00
12700;DHT22;6414;49.570;6.060;2023-07-22T16:34:50;22.50;1.00
12700;DHT22;6414;49.570;6.060;2023-07-22T16:37:37;22.40;1.00
12700;DHT22;6414;49.570;6.060;2023-07-22T16:40:22;22.30;1.00
12700;DHT22;6414;49.570;6.060;2023-07-22T16:43:08;22.40;1.00
12700;DHT22;6414;49.570;6.060;2023-07-22T16:45:55;22.40;1.00
12700;DHT22;6414;49.570;6.060;2023-07-22T16:48:41;22.40;1.00
12700;DHT22;6414;49.570;6.060;2023-07-22T16:51:27;22.50;1.00
12700;DHT22;6414;49.570;6.060;2023-07-22T16:54:13;22.50;1.00
12700;DHT22;6414;49.570;6.060;2023-07-22T16:56:59;22.50;1.00
12700;DHT22;6414;49.570;6.060;2023-07-22T16:59:45;22.50;1.00
12700;DHT22;6414;49.570;6.060;2023-07-22T17:02:32;22.30;1.00
12700;DHT22;6414;49.570;6.060;2023-07-22T17:05:19;22.00;1.00
12700;DHT22;6414;49.570;6.060;2023-07-22T17:08:05;22.00;1.00
12700;DHT22;6414;49.570;6.060;2023-07-22T17:10:52;22.00;1.00
12700;DHT22;6414;49.570;6.060;2023-07-22T17:13:39;22.10;1.00
12700;DHT22;6414;49.570;6.060;2023-07-22T17:16:25;22.10;1.00
12700;DHT22;6414;49.570;6.060;2023-07-22T17:19:11;21.90;1.00
12700;DHT22;6414;49.570;6.060;2023-07-22T17:21:57;21.90;1.00
12700;DHT22;6414;49.570;6.060;2023-07-22T17:24:43;21.90;1.00
12700;DHT22;6414;49.570;6.060;2023-07-22T17:27:30;21.90;1.00
12700;DHT22;6414;49.570;6.060;2023-07-22T17:30:17;21.90;1.00
12700;DHT22;6414;49.570;6.060;2023-07-22T17:33:02;21.90;1.00
12700;DHT22;6414;49.570;6.060;2023-07-22T17:35:48;21.90;1.00
12700;DHT22;6414;49.570;6.060;2023-07-22T17:38:34;21.80;1.00
12700;DHT22;6414;49.570;6.060;2023-07-22T17:41:21;21.80;1.00
12700;DHT22;6414;49.570;6.060;2023-07-22T17:44:07;21.70;1.00
12700;DHT22;6414;49.570;6.060;2023-07-22T17:46:54;21.70;1.00
12700;DHT22;6414;49.570;6.060;2023-07-22T17:49:40;21.70;1.00
12700;DHT22;6414;49.570;6.060;2023-07-22T17:52:26;21.70;1.00
12700;DHT22;6414;49.570;6.060;2023-07-22T17:55:12;21.60;1.00
12700;DHT22;6414;49.570;6.060;2023-07-22T17:57:58;21.50;1.00
12700;DHT22;6414;49.570;6.060;2023-07-22T18:00:44;21.30;1.00